createdAt,value
2022-12-16T00:01:09.837Z,28.60
2022-12-16T00:03:37.585Z,27.42
2022-12-16T00:06:05.227Z,28.48
2022-12-16T00:08:33.496Z,27.15
2022-12-16T00:11:00.962Z,27.67
2022-12-16T00:13:29.276Z,27.35
2022-12-16T00:15:56.402Z,26.83
2022-12-16T00:18:22.886Z,26.55
2022-12-16T00:20:52.495Z,28.50
2022-12-16T00:23:22.509Z,26.65
2022-12-16T00:25:49.146Z,27.08
2022-12-16T00:28:16.910Z,29.33
2022-12-16T00:30:44.004Z,25.73
2022-12-16T00:33:13.176Z,29.33
2022-12-16T00:35:44.505Z,28.73
2022-12-16T00:38:15.580Z,29.27
2022-12-16T00:40:42.264Z,28.60
2022-12-16T00:43:08.902Z,27.55
2022-12-16T00:45:37.668Z,28.45
2022-12-16T00:48:04.154Z,28.27
2022-12-16T00:50:31.024Z,28.02
2022-12-16T00:52:57.663Z,29.30
2022-12-16T00:55:24.214Z,29.63
2022-12-16T00:57:50.697Z,29.27
2022-12-16T01:00:18.872Z,27.27
2022-12-16T01:02:48.114Z,25.50
2022-12-16T01:05:16.657Z,28.33
2022-12-16T01:07:43.490Z,27.20
2022-12-16T01:10:11.097Z,28.15
2022-12-16T01:12:38.703Z,29.30
2022-12-16T01:15:08.160Z,26.55
2022-12-16T01:17:35.247Z,27.35
2022-12-16T01:20:02.328Z,28.17
2022-12-16T01:22:32.464Z,27.80
2022-12-16T01:24:59.921Z,28.27
2022-12-16T01:27:27.364Z,27.38
2022-12-16T01:29:53.793Z,27.73
2022-12-16T01:32:22.599Z,24.55
2022-12-16T01:34:52.603Z,26.27
2022-12-16T01:37:22.767Z,25.45
2022-12-16T01:39:49.368Z,27.40
2022-12-16T01:42:17.564Z,27.55
2022-12-16T01:44:45.553Z,28.98
2022-12-16T01:47:23.978Z,27.23
2022-12-16T01:49:55.620Z,27.90
2022-12-16T01:52:28.007Z,26.33
2022-12-16T01:55:02.167Z,27.45
2022-12-16T01:57:37.727Z,27.23
2022-12-16T02:00:06.427Z,25.65
2022-12-16T02:02:41.140Z,26.85
2022-12-16T02:05:22.877Z,27.20
2022-12-16T02:08:21.474Z,27.95
2022-12-16T02:11:04.704Z,26.05
2022-12-16T02:14:08.782Z,26.13
2022-12-16T02:16:59.862Z,27.05
2022-12-16T02:22:42.949Z,23.63
2022-12-16T02:25:51.285Z,26.48
2022-12-16T02:28:52.490Z,24.75
2022-12-16T02:31:32.567Z,26.63
2022-12-16T02:34:26.200Z,27.83
2022-12-16T02:37:18.111Z,27.07
2022-12-16T02:39:56.865Z,26.52
2022-12-16T02:42:40.208Z,25.20
2022-12-16T02:45:13.276Z,27.48
2022-12-16T02:47:39.912Z,30.15
2022-12-16T02:50:17.468Z,28.88
2022-12-16T02:52:44.131Z,26.88
2022-12-16T02:55:11.203Z,27.75
2022-12-16T03:02:34.249Z,26.98
2022-12-16T03:05:08.729Z,28.27
2022-12-16T03:07:38.417Z,28.33
2022-12-16T03:10:09.481Z,25.17
2022-12-16T03:12:41.959Z,26.48
2022-12-16T03:15:10.101Z,26.15
2022-12-16T03:20:11.364Z,25.30
2022-12-16T03:22:42.089Z,25.10
2022-12-16T03:25:16.477Z,27.63
2022-12-16T03:29:01.633Z,25.67
2022-12-16T03:31:37.198Z,27.13
2022-12-16T03:36:37.038Z,25.02
2022-12-16T03:39:06.017Z,26.25
2022-12-16T03:41:33.080Z,28.45
2022-12-16T03:43:59.818Z,26.95
2022-12-16T03:46:26.687Z,25.38
2022-12-16T03:48:53.128Z,26.70
2022-12-16T03:51:19.688Z,26.85
2022-12-16T03:53:46.663Z,27.50
2022-12-16T03:56:13.324Z,25.35
2022-12-16T03:58:40.400Z,25.85
2022-12-16T04:01:09.434Z,26.83
2022-12-16T04:03:37.549Z,24.92
2022-12-16T04:06:05.121Z,26.75
2022-12-16T04:08:31.578Z,25.50
2022-12-16T04:11:16.591Z,26.88
2022-12-16T04:14:01.645Z,26.88
2022-12-16T04:16:48.179Z,26.52
2022-12-16T04:19:50.460Z,26.45
2022-12-16T04:22:39.919Z,26.55
2022-12-16T04:25:22.467Z,25.42
2022-12-16T04:27:48.861Z,26.17
2022-12-16T04:30:20.506Z,26.02
2022-12-16T04:33:14.773Z,25.98
2022-12-16T04:35:59.914Z,25.77
2022-12-16T04:38:45.070Z,26.55
2022-12-16T04:41:30.786Z,27.33
2022-12-16T04:44:16.324Z,26.80
2022-12-16T04:47:01.342Z,25.35
2022-12-16T04:49:51.360Z,26.45
2022-12-16T04:52:37.029Z,24.90
2022-12-16T04:55:25.758Z,25.40
2022-12-16T04:58:16.412Z,26.38
2022-12-16T05:01:02.233Z,25.92
2022-12-16T05:03:48.152Z,25.52
2022-12-16T05:06:33.834Z,23.58
2022-12-16T05:09:19.282Z,25.90
2022-12-16T05:12:04.592Z,25.23
2022-12-16T05:14:49.557Z,25.88
2022-12-16T05:17:34.614Z,26.25
2022-12-16T05:20:19.854Z,26.83
2022-12-16T05:23:04.718Z,24.95
2022-12-16T05:25:50.299Z,26.02
2022-12-16T05:28:35.717Z,25.08
2022-12-16T05:31:20.921Z,26.20
2022-12-16T05:34:06.487Z,26.63
2022-12-16T05:36:51.660Z,26.88
2022-12-16T05:39:36.710Z,25.50
2022-12-16T05:42:21.953Z,27.13
2022-12-16T05:45:07.109Z,28.35
2022-12-16T05:47:53.108Z,28.25
2022-12-16T05:50:38.290Z,26.27
2022-12-16T05:53:26.674Z,27.02
2022-12-16T05:56:11.852Z,27.05
2022-12-16T05:58:56.865Z,27.02
2022-12-16T06:01:41.870Z,26.90
2022-12-16T06:04:36.930Z,26.17
2022-12-16T06:07:22.066Z,28.10
2022-12-16T06:10:06.879Z,29.37
2022-12-16T06:12:51.764Z,28.52
2022-12-16T06:15:36.739Z,26.90
2022-12-16T06:18:21.850Z,26.08
2022-12-16T06:21:09.584Z,25.48
2022-12-16T06:23:54.356Z,28.00
2022-12-16T06:26:39.328Z,26.93
2022-12-16T06:29:24.285Z,26.27
2022-12-16T06:32:09.087Z,27.20
2022-12-16T06:34:54.107Z,27.92
2022-12-16T06:37:39.034Z,25.50
2022-12-16T06:40:24.677Z,26.65
2022-12-16T06:43:09.747Z,24.92
2022-12-16T06:45:54.878Z,25.48
2022-12-16T06:48:39.993Z,26.30
2022-12-16T06:51:30.771Z,23.23
2022-12-16T06:54:15.700Z,26.23
2022-12-16T06:57:00.596Z,26.25
2022-12-16T06:59:48.515Z,28.30
2022-12-16T07:02:33.583Z,24.55
2022-12-16T07:05:18.747Z,24.48
2022-12-16T07:08:09.121Z,26.73
2022-12-16T07:10:55.297Z,25.77
2022-12-16T07:13:42.061Z,26.47
2022-12-16T07:16:27.015Z,29.27
2022-12-16T07:19:15.295Z,28.20
2022-12-16T07:22:00.299Z,28.60
2022-12-16T07:24:45.959Z,25.77
2022-12-16T07:27:34.532Z,26.90
2022-12-16T07:30:20.049Z,26.03
2022-12-16T07:33:08.878Z,27.63
2022-12-16T07:35:53.852Z,27.95
2022-12-16T07:38:41.943Z,26.53
2022-12-16T07:41:26.747Z,26.90
2022-12-16T07:44:11.673Z,26.73
2022-12-16T07:46:59.528Z,25.87
2022-12-16T07:49:44.516Z,26.13
2022-12-16T07:52:29.407Z,25.90
2022-12-16T07:55:14.197Z,24.27
2022-12-16T07:57:59.045Z,25.08
2022-12-16T08:00:43.885Z,25.58
2022-12-16T08:03:28.890Z,24.30
2022-12-16T08:06:14.043Z,25.80
2022-12-16T08:08:58.906Z,25.50
2022-12-16T08:11:54.489Z,25.48
2022-12-16T08:14:39.563Z,23.88
2022-12-16T08:17:24.737Z,24.37
2022-12-16T08:20:09.585Z,26.25
2022-12-16T08:22:54.383Z,26.50
2022-12-16T08:25:40.368Z,25.45
2022-12-16T08:28:25.526Z,25.17
2022-12-16T08:31:11.138Z,24.30
2022-12-16T08:33:56.410Z,27.77
2022-12-16T08:36:54.958Z,25.43
2022-12-16T08:39:40.279Z,24.50
2022-12-16T08:42:25.434Z,26.58
2022-12-16T08:45:10.372Z,27.50
2022-12-16T08:47:58.339Z,27.93
2022-12-16T08:50:43.171Z,28.07
2022-12-16T08:53:28.139Z,29.92
2022-12-16T08:56:12.946Z,30.92
2022-12-16T08:58:57.721Z,33.08
2022-12-16T09:01:42.653Z,34.83
2022-12-16T09:04:27.953Z,33.22
2022-12-16T09:07:12.957Z,35.85
2022-12-16T09:09:57.793Z,34.40
2022-12-16T09:12:42.811Z,34.47
2022-12-16T09:15:29.159Z,34.53
2022-12-16T09:18:14.494Z,34.63
2022-12-16T09:20:59.910Z,35.22
2022-12-16T09:23:45.222Z,33.58
2022-12-16T09:26:30.313Z,35.03
2022-12-16T09:29:15.249Z,35.85
2022-12-16T09:32:00.152Z,34.17
2022-12-16T09:34:45.034Z,34.50
2022-12-16T09:37:29.953Z,35.28
2022-12-16T09:40:14.766Z,35.30
2022-12-16T09:43:23.834Z,35.88
2022-12-16T09:47:04.942Z,36.05
2022-12-16T09:50:08.562Z,35.83
2022-12-16T09:53:06.871Z,36.55
2022-12-16T09:55:57.131Z,37.50
2022-12-16T09:58:45.350Z,38.20
2022-12-16T10:01:32.342Z,40.00
2022-12-16T10:04:18.003Z,38.78
2022-12-16T10:07:19.525Z,37.63
2022-12-16T10:10:23.249Z,40.40
2022-12-16T10:13:40.755Z,40.78
2022-12-16T10:16:47.837Z,42.88
2022-12-16T10:20:13.923Z,39.58
2022-12-16T10:23:14.606Z,43.50
2022-12-16T10:26:15.791Z,40.10
2022-12-16T10:31:51.578Z,42.70
2022-12-16T10:34:46.939Z,41.85
2022-12-16T10:37:41.837Z,43.00
2022-12-16T10:40:35.266Z,43.38
2022-12-16T10:43:28.655Z,42.60
2022-12-16T10:46:16.235Z,46.20
2022-12-16T10:49:04.508Z,47.80
2022-12-16T10:52:00.188Z,48.60
2022-12-16T10:54:56.667Z,46.65
2022-12-16T10:58:09.429Z,46.75
2022-12-16T11:01:01.681Z,46.63
2022-12-16T11:03:48.995Z,47.38
2022-12-16T11:06:41.539Z,46.78
2022-12-16T11:09:52.475Z,46.17
2022-12-16T11:15:44.338Z,42.38
2022-12-16T11:18:40.876Z,47.40
2022-12-16T11:21:29.748Z,45.65
2022-12-16T11:24:34.797Z,47.42
2022-12-16T11:27:32.934Z,44.97
2022-12-16T11:30:20.772Z,46.28
2022-12-16T11:33:12.731Z,45.55
2022-12-16T11:36:02.690Z,45.90
2022-12-16T11:38:58.467Z,45.03
2022-12-16T11:41:49.793Z,43.83
2022-12-16T11:44:39.686Z,47.10
2022-12-16T11:47:37.214Z,45.30
2022-12-16T11:50:29.806Z,48.17
2022-12-16T11:53:15.707Z,47.92
2022-12-16T11:56:23.986Z,44.42
2022-12-16T11:59:16.211Z,45.90
2022-12-16T12:02:14.847Z,46.40
2022-12-16T12:05:00.217Z,44.03
2022-12-16T12:07:57.258Z,47.45
2022-12-16T12:10:57.571Z,43.03
2022-12-16T12:14:09.823Z,32.27
2022-12-16T12:17:10.562Z,46.83
2022-12-16T12:20:13.254Z,44.22
2022-12-16T12:22:58.697Z,46.40
2022-12-16T12:26:05.387Z,44.10
2022-12-16T12:29:26.492Z,46.30
2022-12-16T12:32:42.366Z,44.35
2022-12-16T12:36:08.553Z,47.00
2022-12-16T12:39:11.226Z,46.05
2022-12-16T12:42:12.760Z,46.53
2022-12-16T12:45:33.821Z,47.38
2022-12-16T12:48:57.415Z,47.75
2022-12-16T12:52:10.636Z,46.85
2022-12-16T12:55:19.909Z,43.95
2022-12-16T12:58:10.849Z,48.08
2022-12-16T13:01:04.888Z,48.28
2022-12-16T13:04:23.769Z,48.00
2022-12-16T13:07:13.641Z,50.38
2022-12-16T13:09:58.718Z,49.78
2022-12-16T13:12:47.373Z,48.90
2022-12-16T13:15:55.452Z,45.60
2022-12-16T13:18:43.591Z,47.53
2022-12-16T13:21:56.990Z,47.33
2022-12-16T13:24:45.364Z,47.03
2022-12-16T13:27:32.737Z,45.60
2022-12-16T13:30:35.857Z,48.45
2022-12-16T13:33:36.440Z,47.00
2022-12-16T13:36:22.114Z,49.42
2022-12-16T13:39:10.462Z,48.03
2022-12-16T13:41:55.476Z,46.47
2022-12-16T13:45:02.180Z,48.22
2022-12-16T13:47:59.399Z,48.45
2022-12-16T13:51:18.137Z,46.15
2022-12-16T13:54:10.187Z,47.20
2022-12-16T13:59:46.997Z,46.00
2022-12-16T14:02:46.089Z,47.38
2022-12-16T14:05:48.789Z,48.40
2022-12-16T14:08:56.578Z,48.90
2022-12-16T14:11:54.810Z,47.28
2022-12-16T14:14:48.745Z,48.38
2022-12-16T14:17:45.189Z,48.17
2022-12-16T14:20:47.643Z,49.35
2022-12-16T14:24:15.696Z,47.47
2022-12-16T14:27:01.168Z,47.25
2022-12-16T14:29:48.210Z,48.45
2022-12-16T14:32:45.255Z,45.88
2022-12-16T14:35:36.815Z,49.92
2022-12-16T14:38:50.449Z,49.40
2022-12-16T14:41:41.526Z,50.85
2022-12-16T14:44:53.034Z,48.13
2022-12-16T14:47:39.926Z,48.60
2022-12-16T14:51:00.666Z,47.08
2022-12-16T14:53:51.518Z,47.47
2022-12-16T14:56:41.676Z,49.25
2022-12-16T14:59:38.822Z,49.33
2022-12-16T15:02:52.811Z,48.35
2022-12-16T15:05:39.351Z,46.08
2022-12-16T15:08:28.583Z,48.95
2022-12-16T15:11:13.944Z,48.13
2022-12-16T15:14:03.517Z,49.13
2022-12-16T15:16:55.005Z,47.90
2022-12-16T15:19:43.405Z,47.53
2022-12-16T15:22:33.429Z,49.00
2022-12-16T15:25:22.509Z,48.03
2022-12-16T15:28:15.116Z,51.47
2022-12-16T15:31:02.663Z,50.05
2022-12-16T15:33:52.797Z,48.22
2022-12-16T15:36:48.057Z,48.05
2022-12-16T15:39:54.843Z,48.95
2022-12-16T15:42:43.561Z,47.47
2022-12-16T15:45:47.568Z,49.65
2022-12-16T15:48:54.394Z,49.60
2022-12-16T15:51:42.421Z,48.90
2022-12-16T15:54:41.194Z,47.53
2022-12-16T15:57:44.195Z,45.67
2022-12-16T16:00:44.897Z,46.40
2022-12-16T16:03:48.760Z,35.10
2022-12-16T16:06:41.078Z,45.15
2022-12-16T16:09:39.689Z,48.28
2022-12-16T16:12:26.982Z,49.15
2022-12-16T16:15:12.304Z,47.17
2022-12-16T16:17:57.210Z,46.55
2022-12-16T16:20:46.988Z,44.60
2022-12-16T16:23:40.985Z,48.25
2022-12-16T16:26:29.589Z,48.88
2022-12-16T16:29:14.459Z,47.25
2022-12-16T16:32:03.834Z,47.17
2022-12-16T16:34:49.787Z,45.83
2022-12-16T16:37:37.164Z,46.65
2022-12-16T16:40:37.115Z,47.50
2022-12-16T16:43:22.457Z,48.60
2022-12-16T16:46:26.608Z,44.35
2022-12-16T16:49:11.705Z,43.90
2022-12-16T16:51:56.523Z,44.67
2022-12-16T16:54:47.553Z,46.08
2022-12-16T16:57:32.453Z,47.33
2022-12-16T17:00:27.908Z,46.67
2022-12-16T17:03:13.862Z,48.13
2022-12-16T17:05:58.848Z,46.45
2022-12-16T17:08:47.271Z,47.10
2022-12-16T17:11:37.383Z,46.10
2022-12-16T17:14:22.145Z,45.60
2022-12-16T17:17:07.042Z,46.40
2022-12-16T17:19:51.742Z,45.83
2022-12-16T17:22:38.672Z,49.55
2022-12-16T17:25:24.395Z,47.78
2022-12-16T17:28:09.228Z,46.58
2022-12-16T17:30:57.108Z,46.35
2022-12-16T17:33:42.523Z,47.33
2022-12-16T17:36:32.248Z,47.00
2022-12-16T17:39:17.340Z,47.03
2022-12-16T17:42:02.156Z,46.90
2022-12-16T17:44:46.975Z,47.50
2022-12-16T17:47:32.933Z,49.47
2022-12-16T17:50:18.040Z,47.95
2022-12-16T17:53:02.967Z,46.95
2022-12-16T17:55:47.701Z,50.13
2022-12-16T17:58:32.597Z,48.00
2022-12-16T18:01:22.108Z,51.08
2022-12-16T18:04:07.906Z,53.35
2022-12-16T18:06:53.684Z,51.38
2022-12-16T18:09:41.591Z,53.47
2022-12-16T18:12:26.477Z,50.45
2022-12-16T18:15:11.696Z,52.13
2022-12-16T18:17:56.636Z,53.83
2022-12-16T18:20:41.887Z,55.90
2022-12-16T18:23:31.929Z,55.25
2022-12-16T18:26:20.182Z,59.25
2022-12-16T18:29:05.100Z,58.67
2022-12-16T18:31:50.103Z,53.83
2022-12-16T18:34:35.241Z,53.63
2022-12-16T18:37:20.171Z,49.67
2022-12-16T18:40:08.294Z,50.25
2022-12-16T18:42:53.226Z,51.15
2022-12-16T18:45:38.201Z,51.83
2022-12-16T18:48:23.252Z,51.67
2022-12-16T18:51:16.145Z,51.15
2022-12-16T18:54:01.648Z,50.17
2022-12-16T18:56:46.750Z,50.45
2022-12-16T18:59:32.039Z,49.15
2022-12-16T19:02:17.138Z,50.20
2022-12-16T19:05:02.331Z,49.63
2022-12-16T19:07:47.280Z,49.25
2022-12-16T19:10:32.519Z,49.30
2022-12-16T19:13:19.828Z,49.63
2022-12-16T19:16:15.607Z,51.35
2022-12-16T19:19:00.737Z,47.03
2022-12-16T19:21:56.961Z,47.10
2022-12-16T19:24:43.177Z,48.72
2022-12-16T19:27:35.945Z,48.78
2022-12-16T19:30:21.534Z,47.00
2022-12-16T19:33:07.392Z,50.65
2022-12-16T19:35:52.315Z,52.38
2022-12-16T19:38:38.434Z,51.13
2022-12-16T19:41:23.942Z,50.63
2022-12-16T19:44:08.906Z,50.08
2022-12-16T19:46:55.976Z,49.75
2022-12-16T19:49:59.225Z,51.58
2022-12-16T19:52:44.104Z,50.05
2022-12-16T19:55:29.055Z,50.17
2022-12-16T19:58:14.043Z,50.28
2022-12-16T20:00:58.943Z,47.90
2022-12-16T20:03:44.973Z,47.60
2022-12-16T20:06:30.319Z,54.70
2022-12-16T20:09:32.270Z,53.50
2022-12-16T20:12:17.274Z,51.60
2022-12-16T20:15:02.135Z,52.65
2022-12-16T20:17:47.163Z,48.90
2022-12-16T20:20:32.063Z,51.63
2022-12-16T20:23:16.966Z,50.13
2022-12-16T20:26:01.949Z,48.80
2022-12-16T20:28:47.233Z,48.42
2022-12-16T20:31:32.071Z,47.67
2022-12-16T20:34:17.086Z,46.83
2022-12-16T20:37:02.394Z,49.78
2022-12-16T20:39:56.409Z,46.95
2022-12-16T20:42:53.302Z,47.88
2022-12-16T20:45:38.923Z,50.22
2022-12-16T20:48:24.108Z,49.75
2022-12-16T20:51:22.618Z,60.53
2022-12-16T20:54:10.948Z,54.60
2022-12-16T20:56:56.587Z,53.25
2022-12-16T20:59:42.169Z,51.35
2022-12-16T21:02:36.474Z,51.17
2022-12-16T21:05:28.428Z,52.08
2022-12-16T21:08:13.335Z,51.35
2022-12-16T21:10:58.209Z,95.47
2022-12-16T21:13:43.880Z,66.63
2022-12-16T21:16:29.035Z,89.80
2022-12-16T21:19:14.281Z,89.03
2022-12-16T21:22:02.016Z,64.72
2022-12-16T21:24:47.317Z,53.97
2022-12-16T21:27:32.521Z,51.35
2022-12-16T21:30:17.385Z,52.85
2022-12-16T21:33:02.533Z,51.45
2022-12-16T21:35:47.948Z,53.33
2022-12-16T21:38:32.965Z,50.85
2022-12-16T21:41:17.986Z,52.40
2022-12-16T21:44:02.952Z,51.05
2022-12-16T21:46:47.849Z,55.22
2022-12-16T21:49:32.708Z,52.10
2022-12-16T21:52:17.706Z,52.25
2022-12-16T21:55:02.635Z,48.95
2022-12-16T21:57:47.894Z,51.72
2022-12-16T22:00:33.413Z,52.22
2022-12-16T22:03:18.291Z,50.88
2022-12-16T22:06:03.517Z,51.60
2022-12-16T22:08:48.416Z,52.70
2022-12-16T22:11:33.833Z,50.35
2022-12-16T22:14:19.240Z,53.70
2022-12-16T22:17:07.297Z,53.17
2022-12-16T22:19:52.440Z,52.28
2022-12-16T22:22:37.339Z,54.42
2022-12-16T22:25:23.219Z,50.75
2022-12-16T22:28:10.946Z,53.58
2022-12-16T22:30:56.196Z,52.75
2022-12-16T22:33:41.765Z,53.22
2022-12-16T22:36:29.068Z,53.80
2022-12-16T22:39:13.936Z,52.17
2022-12-16T22:41:58.973Z,53.97
2022-12-16T22:44:43.824Z,53.70
2022-12-16T22:47:28.651Z,52.95
2022-12-16T22:50:13.624Z,52.78
2022-12-16T22:52:58.507Z,51.80
2022-12-16T22:55:43.457Z,50.80
2022-12-16T22:58:29.742Z,50.92
2022-12-16T23:01:14.977Z,54.03
2022-12-16T23:03:59.816Z,50.70
2022-12-16T23:06:44.715Z,53.47
2022-12-16T23:09:29.629Z,54.88
2022-12-16T23:12:14.600Z,52.60
2022-12-16T23:14:59.725Z,51.38
2022-12-16T23:17:44.746Z,51.92
2022-12-16T23:20:30.017Z,51.03
2022-12-16T23:23:16.052Z,51.72
2022-12-16T23:26:01.109Z,51.33
2022-12-16T23:28:46.466Z,51.60
2022-12-16T23:31:31.539Z,48.85
2022-12-16T23:34:16.714Z,50.80
2022-12-16T23:37:02.691Z,50.85
2022-12-16T23:39:47.633Z,49.97
2022-12-16T23:42:32.609Z,50.70
2022-12-16T23:45:17.571Z,50.75
2022-12-16T23:48:02.580Z,52.20
2022-12-16T23:50:47.433Z,50.63
2022-12-16T23:53:32.416Z,54.28
2022-12-16T23:56:19.314Z,50.63
2022-12-16T23:59:07.383Z,52.63
